sensor_id;sensor_type;location;lat;lon;timestamp;pressure;altitude;pressure_sealevel;temperature
64394;BMP280;50712;49.506;10.400;2023-03-03T00:00:12;98247.78;;;5.61
64394;BMP280;50712;49.506;10.400;2023-03-03T00:00:47;98243.56;;;5.60
64394;BMP280;50712;49.506;10.400;2023-03-03T00:01:21;98247.03;;;5.61
64394;BMP280;50712;49.506;10.400;2023-03-03T00:01:55;98235.84;;;5.59
64394;BMP280;50712;49.506;10.400;2023-03-03T00:02:28;98239.72;;;5.58
64394;BMP280;50712;49.506;10.400;2023-03-03T00:03:02;98238.94;;;5.57
64394;BMP280;50712;49.506;10.400;2023-03-03T00:03:36;98242.03;;;5.56
64394;BMP280;50712;49.506;10.400;2023-03-03T00:04:10;98241.25;;;5.55
64394;BMP280;50712;49.506;10.400;2023-03-03T00:04:42;98243.19;;;5.55
64394;BMP280;50712;49.506;10.400;2023-03-03T00:05:16;98237.78;;;5.55
64394;BMP280;50712;49.506;10.400;2023-03-03T00:05:51;98245.91;;;5.55
64394;BMP280;50712;49.506;10.400;2023-03-03T00:06:24;98245.56;;;5.53
64394;BMP280;50712;49.506;10.400;2023-03-03T00:06:56;98244.41;;;5.54
64394;BMP280;50712;49.506;10.400;2023-03-03T00:07:30;98247.09;;;5.54
64394;BMP280;50712;49.506;10.400;2023-03-03T00:08:04;98249.81;;;5.54
64394;BMP280;50712;49.506;10.400;2023-03-03T00:08:37;98249.03;;;5.53
64394;BMP280;50712;49.506;10.400;2023-03-03T00:09:08;98251.75;;;5.53
64394;BMP280;50712;49.506;10.400;2023-03-03T00:09:41;98255.22;;;5.54
64394;BMP280;50712;49.506;10.400;2023-03-03T00:10:14;98256.00;;;5.54
64394;BMP280;50712;49.506;10.400;2023-03-03T00:10:47;98254.00;;;5.55
64394;BMP280;50712;49.506;10.400;2023-03-03T00:11:20;98254.00;;;5.55
64394;BMP280;50712;49.506;10.400;2023-03-03T00:11:53;98244.41;;;5.54
64394;BMP280;50712;49.506;10.400;2023-03-03T00:12:31;98246.66;;;5.55
64394;BMP280;50712;49.506;10.400;2023-03-03T00:13:15;98253.28;;;5.54
64394;BMP280;50712;49.506;10.400;2023-03-03T00:13:52;98245.91;;;5.55
64394;BMP280;50712;49.506;10.400;2023-03-03T00:14:27;98249.38;;;5.55
64394;BMP280;50712;49.506;10.400;2023-03-03T00:15:01;98247.44;;;5.56
64394;BMP280;50712;49.506;10.400;2023-03-03T00:15:34;98243.97;;;5.55
64394;BMP280;50712;49.506;10.400;2023-03-03T00:16:10;98249.75;;;5.57
64394;BMP280;50712;49.506;10.400;2023-03-03T00:16:44;98245.50;;;5.56
64394;BMP280;50712;49.506;10.400;2023-03-03T00:17:55;98240.09;;;5.56
64394;BMP280;50712;49.506;10.400;2023-03-03T00:18:32;98237.41;;;5.56
64394;BMP280;50712;49.506;10.400;2023-03-03T00:19:11;98245.50;;;5.56
64394;BMP280;50712;49.506;10.400;2023-03-03T00:19:45;98238.56;;;5.55
64394;BMP280;50712;49.506;10.400;2023-03-03T00:20:36;98238.94;;;5.57
64394;BMP280;50712;49.506;10.400;2023-03-03T00:21:16;98242.03;;;5.56
64394;BMP280;50712;49.506;10.400;2023-03-03T00:21:51;98241.25;;;5.55
64394;BMP280;50712;49.506;10.400;2023-03-03T00:22:30;98238.56;;;5.55
64394;BMP280;50712;49.506;10.400;2023-03-03T00:24:48;98247.09;;;5.54
64394;BMP280;50712;49.506;10.400;2023-03-03T00:25:30;98246.34;;;5.53
64394;BMP280;50712;49.506;10.400;2023-03-03T00:26:59;98244.78;;;5.52
64394;BMP280;50712;49.506;10.400;2023-03-03T00:27:41;98254.44;;;5.53
64394;BMP280;50712;49.506;10.400;2023-03-03T00:28:20;98242.09;;;5.52
64394;BMP280;50712;49.506;10.400;2023-03-03T00:28:54;98250.63;;;5.51
64394;BMP280;50712;49.506;10.400;2023-03-03T00:29:34;98246.38;;;5.50
64394;BMP280;50712;49.506;10.400;2023-03-03T00:30:16;98255.63;;;5.49
64394;BMP280;50712;49.506;10.400;2023-03-03T00:30:54;98252.56;;;5.47
64394;BMP280;50712;49.506;10.400;2023-03-03T00:31:30;98255.25;;;5.47
64394;BMP280;50712;49.506;10.400;2023-03-03T00:32:11;98254.91;;;5.45
64394;BMP280;50712;49.506;10.400;2023-03-03T00:32:51;98258.00;;;5.43
64394;BMP280;50712;49.506;10.400;2023-03-03T00:33:28;98261.84;;;5.42
64394;BMP280;50712;49.506;10.400;2023-03-03T00:35:00;98260.34;;;5.41
64394;BMP280;50712;49.506;10.400;2023-03-03T00:35:47;98262.25;;;5.41
64394;BMP280;50712;49.506;10.400;2023-03-03T00:36:26;98256.09;;;5.40
64394;BMP280;50712;49.506;10.400;2023-03-03T00:37:09;98255.31;;;5.40
64394;BMP280;50712;49.506;10.400;2023-03-03T00:38:01;98256.09;;;5.40
64394;BMP280;50712;49.506;10.400;2023-03-03T00:38:45;98264.19;;;5.40
64394;BMP280;50712;49.506;10.400;2023-03-03T00:40:10;98267.34;;;5.39
64394;BMP280;50712;49.506;10.400;2023-03-03T00:40:50;98258.00;;;5.40
64394;BMP280;50712;49.506;10.400;2023-03-03T00:41:24;98261.16;;;5.38
64394;BMP280;50712;49.506;10.400;2023-03-03T00:41:59;98259.22;;;5.39
64394;BMP280;50712;49.506;10.400;2023-03-03T00:42:36;98258.44;;;5.38
64394;BMP280;50712;49.506;10.400;2023-03-03T00:43:23;98260.38;;;5.38
64394;BMP280;50712;49.506;10.400;2023-03-03T00:44:00;98261.53;;;5.37
64394;BMP280;50712;49.506;10.400;2023-03-03T00:45:33;98261.94;;;5.35
64394;BMP280;50712;49.506;10.400;2023-03-03T00:46:22;98253.47;;;5.33
64394;BMP280;50712;49.506;10.400;2023-03-03T00:46:56;98259.28;;;5.32
64394;BMP280;50712;49.506;10.400;2023-03-03T00:47:54;98250.03;;;5.29
64394;BMP280;50712;49.506;10.400;2023-03-03T00:48:48;98257.38;;;5.29
64394;BMP280;50712;49.506;10.400;2023-03-03T00:49:23;98255.03;;;5.27
64394;BMP280;50712;49.506;10.400;2023-03-03T00:50:40;98250.81;;;5.26
64394;BMP280;50712;49.506;10.400;2023-03-03T00:51:56;98260.09;;;5.25
64394;BMP280;50712;49.506;10.400;2023-03-03T00:52:29;98256.63;;;5.25
64394;BMP280;50712;49.506;10.400;2023-03-03T00:53:06;98260.09;;;5.25
64394;BMP280;50712;49.506;10.400;2023-03-03T00:53:43;98260.09;;;5.25
64394;BMP280;50712;49.506;10.400;2023-03-03T00:54:16;98259.31;;;5.25
64394;BMP280;50712;49.506;10.400;2023-03-03T00:54:50;98265.50;;;5.25
64394;BMP280;50712;49.506;10.400;2023-03-03T00:55:23;98260.47;;;5.24
64394;BMP280;50712;49.506;10.400;2023-03-03T00:55:58;98255.84;;;5.24
64394;BMP280;50712;49.506;10.400;2023-03-03T00:56:31;98257.03;;;5.23
64394;BMP280;50712;49.506;10.400;2023-03-03T00:57:06;98257.03;;;5.23
64394;BMP280;50712;49.506;10.400;2023-03-03T00:57:41;98254.72;;;5.22
64394;BMP280;50712;49.506;10.400;2023-03-03T00:58:14;98261.69;;;5.23
64394;BMP280;50712;49.506;10.400;2023-03-03T00:58:50;98259.38;;;5.21
64394;BMP280;50712;49.506;10.400;2023-03-03T00:59:24;98258.22;;;5.22
64394;BMP280;50712;49.506;10.400;2023-03-03T00:59:59;98257.81;;;5.20
64394;BMP280;50712;49.506;10.400;2023-03-03T01:00:31;98259.38;;;5.21
64394;BMP280;50712;49.506;10.400;2023-03-03T01:01:05;98260.53;;;5.20
64394;BMP280;50712;49.506;10.400;2023-03-03T01:01:45;98260.16;;;5.18
64394;BMP280;50712;49.506;10.400;2023-03-03T01:02:19;98252.06;;;5.18
64394;BMP280;50712;49.506;10.400;2023-03-03T01:02:56;98252.06;;;5.18
64394;BMP280;50712;49.506;10.400;2023-03-03T01:03:29;98256.69;;;5.18
64394;BMP280;50712;49.506;10.400;2023-03-03T01:04:04;98251.69;;;5.16
64394;BMP280;50712;49.506;10.400;2023-03-03T01:04:38;98252.06;;;5.14
64394;BMP280;50712;49.506;10.400;2023-03-03T01:05:14;98250.53;;;5.13
64394;BMP280;50712;49.506;10.400;2023-03-03T01:05:47;98257.50;;;5.11
64394;BMP280;50712;49.506;10.400;2023-03-03T01:06:22;98250.97;;;5.08
64394;BMP280;50712;49.506;10.400;2023-03-03T01:06:55;98249.84;;;5.06
64394;BMP280;50712;49.506;10.400;2023-03-03T01:07:27;98249.47;;;5.04
64394;BMP280;50712;49.506;10.400;2023-03-03T01:08:00;98240.22;;;5.01
64394;BMP280;50712;49.506;10.400;2023-03-03T01:08:34;98250.25;;;5.01
64394;BMP280;50712;49.506;10.400;2023-03-03T01:09:07;98245.25;;;4.99
64394;BMP280;50712;49.506;10.400;2023-03-03T01:09:39;98254.50;;;4.98
64394;BMP280;50712;49.506;10.400;2023-03-03T01:10:10;98242.19;;;4.97
64394;BMP280;50712;49.506;10.400;2023-03-03T01:10:43;98252.22;;;4.97
64394;BMP280;50712;49.506;10.400;2023-03-03T01:11:22;98247.59;;;4.97
64394;BMP280;50712;49.506;10.400;2023-03-03T01:12:00;98248.75;;;4.96
64394;BMP280;50712;49.506;10.400;2023-03-03T01:12:35;98247.59;;;4.97
64394;BMP280;50712;49.506;10.400;2023-03-03T01:13:08;98253.00;;;4.97
64394;BMP280;50712;49.506;10.400;2023-03-03T01:13:42;98255.69;;;4.97
64394;BMP280;50712;49.506;10.400;2023-03-03T01:14:17;98249.53;;;4.97
64394;BMP280;50712;49.506;10.400;2023-03-03T01:14:50;98247.59;;;4.97
64394;BMP280;50712;49.506;10.400;2023-03-03T01:15:27;98241.41;;;4.97
64394;BMP280;50712;49.506;10.400;2023-03-03T01:16:01;98253.00;;;4.97
64394;BMP280;50712;49.506;10.400;2023-03-03T01:16:35;98251.44;;;4.96
64394;BMP280;50712;49.506;10.400;2023-03-03T01:17:07;98254.16;;;4.96
64394;BMP280;50712;49.506;10.400;2023-03-03T01:17:41;98248.75;;;4.96
64394;BMP280;50712;49.506;10.400;2023-03-03T01:18:14;98253.38;;;4.96
64394;BMP280;50712;49.506;10.400;2023-03-03T01:18:47;98249.13;;;4.95
64394;BMP280;50712;49.506;10.400;2023-03-03T01:19:21;98253.75;;;4.94
64394;BMP280;50712;49.506;10.400;2023-03-03T01:19:55;98251.06;;;4.94
64394;BMP280;50712;49.506;10.400;2023-03-03T01:20:28;98251.06;;;4.94
64394;BMP280;50712;49.506;10.400;2023-03-03T01:21:03;98246.06;;;4.93
64394;BMP280;50712;49.506;10.400;2023-03-03T01:21:36;98259.56;;;4.93
64394;BMP280;50712;49.506;10.400;2023-03-03T01:22:10;98258.78;;;4.92
64394;BMP280;50712;49.506;10.400;2023-03-03T01:22:45;98251.84;;;4.91
64394;BMP280;50712;49.506;10.400;2023-03-03T01:23:18;98257.66;;;4.90
64394;BMP280;50712;49.506;10.400;2023-03-03T01:23:51;98248.03;;;4.89
64394;BMP280;50712;49.506;10.400;2023-03-03T01:24:26;98254.63;;;4.88
64394;BMP280;50712;49.506;10.400;2023-03-03T01:25:00;98251.16;;;4.87
64394;BMP280;50712;49.506;10.400;2023-03-03T01:25:35;98248.81;;;4.86
64394;BMP280;50712;49.506;10.400;2023-03-03T01:26:07;98248.06;;;4.85
64394;BMP280;50712;49.506;10.400;2023-03-03T01:26:40;98253.44;;;4.85
64394;BMP280;50712;49.506;10.400;2023-03-03T01:27:14;98247.28;;;4.85
64394;BMP280;50712;49.506;10.400;2023-03-03T01:27:47;98240.38;;;4.84
64394;BMP280;50712;49.506;10.400;2023-03-03T01:28:20;98247.69;;;4.83
64394;BMP280;50712;49.506;10.400;2023-03-03T01:28:55;98249.63;;;4.83
64394;BMP280;50712;49.506;10.400;2023-03-03T01:29:28;98245.00;;;4.83
64394;BMP280;50712;49.506;10.400;2023-03-03T01:30:01;98241.94;;;4.81
64394;BMP280;50712;49.506;10.400;2023-03-03T01:30:36;98242.66;;;4.82
64394;BMP280;50712;49.506;10.400;2023-03-03T01:31:11;98244.22;;;4.79
64394;BMP280;50712;49.506;10.400;2023-03-03T01:31:44;98242.72;;;4.78
64394;BMP280;50712;49.506;10.400;2023-03-03T01:32:21;98248.84;;;4.79
64394;BMP280;50712;49.506;10.400;2023-03-03T01:32:55;98248.84;;;4.79
64394;BMP280;50712;49.506;10.400;2023-03-03T01:33:29;98245.41;;;4.78
64394;BMP280;50712;49.506;10.400;2023-03-03T01:34:03;98241.94;;;4.78
64394;BMP280;50712;49.506;10.400;2023-03-03T01:34:37;98243.09;;;4.77
64394;BMP280;50712;49.506;10.400;2023-03-03T01:35:11;98242.31;;;4.76
64394;BMP280;50712;49.506;10.400;2023-03-03T01:35:45;98242.31;;;4.76
64394;BMP280;50712;49.506;10.400;2023-03-03T01:36:23;98240.78;;;4.75
64394;BMP280;50712;49.506;10.400;2023-03-03T01:36:57;98244.25;;;4.76
64394;BMP280;50712;49.506;10.400;2023-03-03T01:37:31;98248.13;;;4.75
64394;BMP280;50712;49.506;10.400;2023-03-03T01:38:06;98251.56;;;4.75
64394;BMP280;50712;49.506;10.400;2023-03-03T01:38:40;98242.72;;;4.75
64394;BMP280;50712;49.506;10.400;2023-03-03T01:39:13;98247.34;;;4.74
64394;BMP280;50712;49.506;10.400;2023-03-03T01:39:49;98244.66;;;4.74
64394;BMP280;50712;49.506;10.400;2023-03-03T01:40:23;98246.56;;;4.74
64394;BMP280;50712;49.506;10.400;2023-03-03T01:40:58;98245.81;;;4.73
64394;BMP280;50712;49.506;10.400;2023-03-03T01:41:31;98245.81;;;4.73
64394;BMP280;50712;49.506;10.400;2023-03-03T01:42:06;98251.97;;;4.74
64394;BMP280;50712;49.506;10.400;2023-03-03T01:42:38;98246.97;;;4.72
64394;BMP280;50712;49.506;10.400;2023-03-03T01:43:13;98249.66;;;4.72
64394;BMP280;50712;49.506;10.400;2023-03-03T01:43:47;98244.25;;;4.72
64394;BMP280;50712;49.506;10.400;2023-03-03T01:44:23;98247.72;;;4.73
64394;BMP280;50712;49.506;10.400;2023-03-03T01:47:07;98245.84;;;4.70
64394;BMP280;50712;49.506;10.400;2023-03-03T01:47:59;98243.56;;;4.68
64394;BMP280;50712;49.506;10.400;2023-03-03T01:48:41;98245.84;;;4.66
64394;BMP280;50712;49.506;10.400;2023-03-03T01:49:17;98244.72;;;4.64
64394;BMP280;50712;49.506;10.400;2023-03-03T01:49:59;98251.28;;;4.63
64394;BMP280;50712;49.506;10.400;2023-03-03T01:51:53;98246.28;;;4.58
64394;BMP280;50712;49.506;10.400;2023-03-03T01:52:32;98243.97;;;4.56
64394;BMP280;50712;49.506;10.400;2023-03-03T01:53:10;98245.16;;;4.55
64394;BMP280;50712;49.506;10.400;2023-03-03T01:53:47;98238.22;;;4.54
64394;BMP280;50712;49.506;10.400;2023-03-03T01:54:27;98239.38;;;4.53
64394;BMP280;50712;49.506;10.400;2023-03-03T01:55:07;98237.09;;;4.51
64394;BMP280;50712;49.506;10.400;2023-03-03T01:55:45;98235.97;;;4.49
64394;BMP280;50712;49.506;10.400;2023-03-03T01:56:20;98235.56;;;4.47
64394;BMP280;50712;49.506;10.400;2023-03-03T01:56:52;98235.97;;;4.45
64394;BMP280;50712;49.506;10.400;2023-03-03T01:57:29;98237.13;;;4.44
64394;BMP280;50712;49.506;10.400;2023-03-03T01:58:52;98225.19;;;4.42
64394;BMP280;50712;49.506;10.400;2023-03-03T01:59:33;98234.44;;;4.41
64394;BMP280;50712;49.506;10.400;2023-03-03T02:00:11;98232.16;;;4.39
64394;BMP280;50712;49.506;10.400;2023-03-03T02:00:48;98230.59;;;4.38
64394;BMP280;50712;49.506;10.400;2023-03-03T02:01:24;98239.06;;;4.37
64394;BMP280;50712;49.506;10.400;2023-03-03T02:01:59;98236.00;;;4.35
64394;BMP280;50712;49.506;10.400;2023-03-03T02:02:33;98241.06;;;4.33
64394;BMP280;50712;49.506;10.400;2023-03-03T02:03:06;98240.28;;;4.32
64394;BMP280;50712;49.506;10.400;2023-03-03T02:03:38;98236.03;;;4.31
64394;BMP280;50712;49.506;10.400;2023-03-03T02:04:13;98233.75;;;4.30
64394;BMP280;50712;49.506;10.400;2023-03-03T02:04:48;98235.66;;;4.29
64394;BMP280;50712;49.506;10.400;2023-03-03T02:05:23;98237.59;;;4.29
64394;BMP280;50712;49.506;10.400;2023-03-03T02:05:59;98243.41;;;4.27
64394;BMP280;50712;49.506;10.400;2023-03-03T02:06:43;98233.75;;;4.26
64394;BMP280;50712;49.506;10.400;2023-03-03T02:07:18;98233.75;;;4.26
64394;BMP280;50712;49.506;10.400;2023-03-03T02:07:53;98236.44;;;4.26
64394;BMP280;50712;49.506;10.400;2023-03-03T02:08:27;98231.06;;;4.26
64394;BMP280;50712;49.506;10.400;2023-03-03T02:09:54;98230.66;;;4.24
64394;BMP280;50712;49.506;10.400;2023-03-03T02:10:30;98235.31;;;4.24
64394;BMP280;50712;49.506;10.400;2023-03-03T02:11:02;98229.53;;;4.22
64394;BMP280;50712;49.506;10.400;2023-03-03T02:11:35;98230.69;;;4.21
64394;BMP280;50712;49.506;10.400;2023-03-03T02:12:10;98237.25;;;4.20
64394;BMP280;50712;49.506;10.400;2023-03-03T02:12:45;98232.22;;;4.18
64394;BMP280;50712;49.506;10.400;2023-03-03T02:13:21;98233.41;;;4.17
64394;BMP280;50712;49.506;10.400;2023-03-03T02:13:59;98231.47;;;4.18
64394;BMP280;50712;49.506;10.400;2023-03-03T02:14:32;98229.94;;;4.17
64394;BMP280;50712;49.506;10.400;2023-03-03T02:15:16;98235.31;;;4.17
64394;BMP280;50712;49.506;10.400;2023-03-03T02:15:52;98237.25;;;4.16
64394;BMP280;50712;49.506;10.400;2023-03-03T02:16:27;98231.09;;;4.16
64394;BMP280;50712;49.506;10.400;2023-03-03T02:16:59;98236.47;;;4.16
64394;BMP280;50712;49.506;10.400;2023-03-03T02:17:36;98233.00;;;4.15
64394;BMP280;50712;49.506;10.400;2023-03-03T02:18:10;98232.22;;;4.15
64394;BMP280;50712;49.506;10.400;2023-03-03T02:18:45;98236.88;;;4.14
64394;BMP280;50712;49.506;10.400;2023-03-03T02:21:22;98229.59;;;4.08
64394;BMP280;50712;49.506;10.400;2023-03-03T02:21:58;98235.00;;;4.08
64394;BMP280;50712;49.506;10.400;2023-03-03T02:22:33;98234.22;;;4.07
64394;BMP280;50712;49.506;10.400;2023-03-03T02:23:18;98234.59;;;4.06
64394;BMP280;50712;49.506;10.400;2023-03-03T02:24:59;98231.53;;;4.04
64394;BMP280;50712;49.506;10.400;2023-03-03T02:25:41;98235.38;;;4.03
64394;BMP280;50712;49.506;10.400;2023-03-03T02:26:22;98232.69;;;4.03
64394;BMP280;50712;49.506;10.400;2023-03-03T02:27:01;98231.16;;;4.02
64394;BMP280;50712;49.506;10.400;2023-03-03T02:27:36;98228.47;;;4.02
64394;BMP280;50712;49.506;10.400;2023-03-03T02:28:09;98228.84;;;4.00
64394;BMP280;50712;49.506;10.400;2023-03-03T02:28:42;98231.53;;;4.00
64394;BMP280;50712;49.506;10.400;2023-03-03T02:29:16;98228.84;;;4.00
64394;BMP280;50712;49.506;10.400;2023-03-03T02:29:52;98230.00;;;3.99
64394;BMP280;50712;49.506;10.400;2023-03-03T02:30:28;98229.25;;;3.99
64394;BMP280;50712;49.506;10.400;2023-03-03T02:31:00;98228.47;;;3.98
64394;BMP280;50712;49.506;10.400;2023-03-03T02:31:34;98229.63;;;3.97
64394;BMP280;50712;49.506;10.400;2023-03-03T02:32:07;98223.44;;;3.97
64394;BMP280;50712;49.506;10.400;2023-03-03T02:32:41;98224.59;;;3.95
64394;BMP280;50712;49.506;10.400;2023-03-03T02:33:16;98223.84;;;3.95
64394;BMP280;50712;49.506;10.400;2023-03-03T02:33:51;98220.75;;;3.93
64394;BMP280;50712;49.506;10.400;2023-03-03T02:34:24;98228.84;;;3.93
64394;BMP280;50712;49.506;10.400;2023-03-03T02:34:57;98221.56;;;3.90
64394;BMP280;50712;49.506;10.400;2023-03-03T02:35:30;98220.06;;;3.89
64394;BMP280;50712;49.506;10.400;2023-03-03T02:36:04;98225.81;;;3.87
64394;BMP280;50712;49.506;10.400;2023-03-03T02:36:39;98221.56;;;3.86
64394;BMP280;50712;49.506;10.400;2023-03-03T02:37:11;98225.81;;;3.84
64394;BMP280;50712;49.506;10.400;2023-03-03T02:37:44;98218.13;;;3.82
64394;BMP280;50712;49.506;10.400;2023-03-03T02:38:26;98222.75;;;3.82
64394;BMP280;50712;49.506;10.400;2023-03-03T02:39:20;98219.66;;;3.80
64394;BMP280;50712;49.506;10.400;2023-03-03T02:39:57;98219.66;;;3.80
64394;BMP280;50712;49.506;10.400;2023-03-03T02:40:33;98224.31;;;3.79
64394;BMP280;50712;49.506;10.400;2023-03-03T02:42:48;98225.81;;;3.80
64394;BMP280;50712;49.506;10.400;2023-03-03T02:43:23;98230.06;;;3.81
64394;BMP280;50712;49.506;10.400;2023-03-03T02:44:00;98230.44;;;3.80
64394;BMP280;50712;49.506;10.400;2023-03-03T02:44:35;98239.28;;;3.80
64394;BMP280;50712;49.506;10.400;2023-03-03T02:45:08;98232.38;;;3.79
64394;BMP280;50712;49.506;10.400;2023-03-03T02:45:43;98237.78;;;3.79
64394;BMP280;50712;49.506;10.400;2023-03-03T02:46:18;98230.84;;;3.78
64394;BMP280;50712;49.506;10.400;2023-03-03T02:46:51;98230.06;;;3.78
64394;BMP280;50712;49.506;10.400;2023-03-03T02:47:26;98229.28;;;3.77
64394;BMP280;50712;49.506;10.400;2023-03-03T02:48:00;98237.38;;;3.77
64394;BMP280;50712;49.506;10.400;2023-03-03T02:48:33;98238.53;;;3.76
64394;BMP280;50712;49.506;10.400;2023-03-03T02:49:09;98227.00;;;3.76
64394;BMP280;50712;49.506;10.400;2023-03-03T02:49:43;98232.38;;;3.76
64394;BMP280;50712;49.506;10.400;2023-03-03T02:50:18;98237.00;;;3.75
64394;BMP280;50712;49.506;10.400;2023-03-03T02:50:50;98234.31;;;3.75
64394;BMP280;50712;49.506;10.400;2023-03-03T02:51:23;98230.06;;;3.74
64394;BMP280;50712;49.506;10.400;2023-03-03T02:51:56;98231.22;;;3.73
64394;BMP280;50712;49.506;10.400;2023-03-03T02:52:31;98234.69;;;3.74
64394;BMP280;50712;49.506;10.400;2023-03-03T02:53:06;98231.22;;;3.73
64394;BMP280;50712;49.506;10.400;2023-03-03T02:53:41;98233.16;;;3.73
64394;BMP280;50712;49.506;10.400;2023-03-03T02:54:17;98237.78;;;3.72
64394;BMP280;50712;49.506;10.400;2023-03-03T02:54:51;98231.63;;;3.72
64394;BMP280;50712;49.506;10.400;2023-03-03T02:55:27;98231.63;;;3.72
64394;BMP280;50712;49.506;10.400;2023-03-03T02:56:02;98229.31;;;3.70
64394;BMP280;50712;49.506;10.400;2023-03-03T02:56:36;98233.97;;;3.70
64394;BMP280;50712;49.506;10.400;2023-03-03T02:57:09;98232.41;;;3.69
64394;BMP280;50712;49.506;10.400;2023-03-03T02:57:43;98237.81;;;3.69
64394;BMP280;50712;49.506;10.400;2023-03-03T02:58:17;98227.41;;;3.67
64394;BMP280;50712;49.506;10.400;2023-03-03T02:58:51;98232.00;;;3.67
64394;BMP280;50712;49.506;10.400;2023-03-03T02:59:23;98238.56;;;3.66
64394;BMP280;50712;49.506;10.400;2023-03-03T02:59:55;98233.19;;;3.66
64394;BMP280;50712;49.506;10.400;2023-03-03T03:00:28;98235.88;;;3.66
64394;BMP280;50712;49.506;10.400;2023-03-03T03:01:02;98230.88;;;3.64
64394;BMP280;50712;49.506;10.400;2023-03-03T03:01:38;98233.56;;;3.64
64394;BMP280;50712;49.506;10.400;2023-03-03T03:02:15;98227.41;;;3.64
64394;BMP280;50712;49.506;10.400;2023-03-03T03:02:47;98227.81;;;3.62
64394;BMP280;50712;49.506;10.400;2023-03-03T03:03:21;98226.25;;;3.61
64394;BMP280;50712;49.506;10.400;2023-03-03T03:03:53;98228.56;;;3.59
64394;BMP280;50712;49.506;10.400;2023-03-03T03:04:26;98234.34;;;3.58
64394;BMP280;50712;49.506;10.400;2023-03-03T03:05:00;98233.56;;;3.57
64394;BMP280;50712;49.506;10.400;2023-03-03T03:05:34;98235.88;;;3.55
64394;BMP280;50712;49.506;10.400;2023-03-03T03:06:08;98237.03;;;3.54
64394;BMP280;50712;49.506;10.400;2023-03-03T03:06:43;98246.28;;;3.53
64394;BMP280;50712;49.506;10.400;2023-03-03T03:07:18;98244.38;;;3.54
64394;BMP280;50712;49.506;10.400;2023-03-03T03:07:52;98247.06;;;3.54
64394;BMP280;50712;49.506;10.400;2023-03-03T03:08:26;98240.13;;;3.53
64394;BMP280;50712;49.506;10.400;2023-03-03T03:08:58;98240.13;;;3.53
64394;BMP280;50712;49.506;10.400;2023-03-03T03:09:31;98239.34;;;3.52
64394;BMP280;50712;49.506;10.400;2023-03-03T03:10:08;98242.03;;;3.52
64394;BMP280;50712;49.506;10.400;2023-03-03T03:10:43;98248.97;;;3.53
64394;BMP280;50712;49.506;10.400;2023-03-03T03:11:15;98242.03;;;3.52
64394;BMP280;50712;49.506;10.400;2023-03-03T03:11:48;98240.13;;;3.53
64394;BMP280;50712;49.506;10.400;2023-03-03T03:12:22;98246.66;;;3.52
64394;BMP280;50712;49.506;10.400;2023-03-03T03:12:57;98251.25;;;3.51
64394;BMP280;50712;49.506;10.400;2023-03-03T03:13:31;98238.97;;;3.50
64394;BMP280;50712;49.506;10.400;2023-03-03T03:14:08;98238.97;;;3.50
64394;BMP280;50712;49.506;10.400;2023-03-03T03:14:41;98242.81;;;3.49
64394;BMP280;50712;49.506;10.400;2023-03-03T03:15:16;98242.03;;;3.49
64394;BMP280;50712;49.506;10.400;2023-03-03T03:15:48;98245.88;;;3.48
64394;BMP280;50712;49.506;10.400;2023-03-03T03:16:22;98247.06;;;3.47
64394;BMP280;50712;49.506;10.400;2023-03-03T03:16:54;98246.31;;;3.46
64394;BMP280;50712;49.506;10.400;2023-03-03T03:17:27;98243.63;;;3.46
64394;BMP280;50712;49.506;10.400;2023-03-03T03:18:02;98244.75;;;3.45
64394;BMP280;50712;49.506;10.400;2023-03-03T03:18:35;98243.97;;;3.45
64394;BMP280;50712;49.506;10.400;2023-03-03T03:19:08;98243.97;;;3.45
64394;BMP280;50712;49.506;10.400;2023-03-03T03:19:43;98242.47;;;3.44
64394;BMP280;50712;49.506;10.400;2023-03-03T03:20:17;98245.16;;;3.44
64394;BMP280;50712;49.506;10.400;2023-03-03T03:20:51;98246.31;;;3.43
64394;BMP280;50712;49.506;10.400;2023-03-03T03:21:25;98242.84;;;3.42
64394;BMP280;50712;49.506;10.400;2023-03-03T03:22:00;98245.16;;;3.44
64394;BMP280;50712;49.506;10.400;2023-03-03T03:22:35;98239.00;;;3.43
64394;BMP280;50712;49.506;10.400;2023-03-03T03:23:09;98237.44;;;3.42
64394;BMP280;50712;49.506;10.400;2023-03-03T03:23:43;98241.31;;;3.41
64394;BMP280;50712;49.506;10.400;2023-03-03T03:24:15;98247.44;;;3.42
64394;BMP280;50712;49.506;10.400;2023-03-03T03:24:57;98237.06;;;3.40
64394;BMP280;50712;49.506;10.400;2023-03-03T03:25:30;98241.69;;;3.40
64394;BMP280;50712;49.506;10.400;2023-03-03T03:26:03;98240.13;;;3.39
64394;BMP280;50712;49.506;10.400;2023-03-03T03:26:38;98244.78;;;3.38
64394;BMP280;50712;49.506;10.400;2023-03-03T03:27:11;98249.00;;;3.39
64394;BMP280;50712;49.506;10.400;2023-03-03T03:27:45;98245.16;;;3.37
64394;BMP280;50712;49.506;10.400;2023-03-03T03:28:17;98246.69;;;3.38
64394;BMP280;50712;49.506;10.400;2023-03-03T03:28:51;98244.00;;;3.38
64394;BMP280;50712;49.506;10.400;2023-03-03T03:29:24;98243.22;;;3.37
64394;BMP280;50712;49.506;10.400;2023-03-03T03:29:59;98245.53;;;3.35
64394;BMP280;50712;49.506;10.400;2023-03-03T03:30:33;98247.47;;;3.34
64394;BMP280;50712;49.506;10.400;2023-03-03T03:31:06;98244.00;;;3.34
64394;BMP280;50712;49.506;10.400;2023-03-03T03:31:41;98245.91;;;3.33
64394;BMP280;50712;49.506;10.400;2023-03-03T03:32:15;98248.97;;;3.32
64394;BMP280;50712;49.506;10.400;2023-03-03T03:32:49;98245.53;;;3.31
64394;BMP280;50712;49.506;10.400;2023-03-03T03:33:24;98252.06;;;3.30
64394;BMP280;50712;49.506;10.400;2023-03-03T03:33:58;98251.69;;;3.28
64394;BMP280;50712;49.506;10.400;2023-03-03T03:34:33;98239.38;;;3.27
64394;BMP280;50712;49.506;10.400;2023-03-03T03:35:08;98242.44;;;3.26
64394;BMP280;50712;49.506;10.400;2023-03-03T03:35:43;98244.34;;;3.25
64394;BMP280;50712;49.506;10.400;2023-03-03T03:36:17;98246.31;;;3.25
64394;BMP280;50712;49.506;10.400;2023-03-03T03:36:49;98242.84;;;3.24
64394;BMP280;50712;49.506;10.400;2023-03-03T03:37:23;98246.66;;;3.23
64394;BMP280;50712;49.506;10.400;2023-03-03T03:37:57;98250.50;;;3.22
64394;BMP280;50712;49.506;10.400;2023-03-03T03:38:31;98245.13;;;3.22
64394;BMP280;50712;49.506;10.400;2023-03-03T03:39:07;98242.44;;;3.22
64394;BMP280;50712;49.506;10.400;2023-03-03T03:39:44;98243.59;;;3.21
64394;BMP280;50712;49.506;10.400;2023-03-03T03:40:21;98245.56;;;3.21
64394;BMP280;50712;49.506;10.400;2023-03-03T03:40:55;98247.47;;;3.20